Cleveland, Ohio
Traffic Map
Current Weather Conditions
Cleveland, Ohio
Overcast Light Rain
Overcast
69°
Feels Like: 69°
Wind Chill: 69° Ceiling: 7500
Heat Index: 69° Visibility: 10mi
Dew Point: 52° Wind: 12mph
Humidity: 54% Direction: 160° (SSE)
Pressure: 29.88in Gusts: 0mph
Raw Report DataKBKL 011053Z 16010KT 10SM -RA OVC075 21/11 A2988 RMK AO2 SLP114 P0000 T02060111
Traffic Incident Summary
Active as of:
Severity:
Category:
InformationThere was an issue retrieving the traffic information for this location. Please try a different location or try again shortly.
Advertisements
Track Severe Weather on mobile